Map

Track Data

SID SEASON NUMBER BASIN SUBBASIN NAME ISO_TIME NATURE LAT LON WMO_WIND WMO_PRES WMO_AGENCY TRACK_TYPE DIST2LAND LANDFALL IFLAG USA_AGENCY USA_ATCF_ID USA_LAT USA_LON USA_RECORD USA_STATUS USA_WIND USA_PRES USA_SSHS USA_R34_NE USA_R34_SE USA_R34_SW USA_R34_NW USA_R50_NE USA_R50_SE USA_R50_SW USA_R50_NW USA_R64_NE USA_R64_SE USA_R64_SW USA_R64_NW USA_POCI USA_ROCI USA_RMW USA_EYE TOKYO_LAT TOKYO_LON TOKYO_GRADE TOKYO_WIND TOKYO_PRES TOKYO_R50_DIR TOKYO_R50_LONG TOKYO_R50_SHORT TOKYO_R30_DIR TOKYO_R30_LONG TOKYO_R30_SHORT TOKYO_LAND CMA_LAT CMA_LON CMA_CAT CMA_WIND CMA_PRES HKO_LAT HKO_LON HKO_CAT HKO_WIND HKO_PRES NEWDELHI_LAT NEWDELHI_LON NEWDELHI_GRADE NEWDELHI_WIND NEWDELHI_PRES NEWDELHI_CI NEWDELHI_DP NEWDELHI_POCI REUNION_LAT REUNION_LON REUNION_TYPE REUNION_WIND REUNION_PRES REUNION_TNUM REUNION_CI REUNION_RMW REUNION_R34_NE REUNION_R34_SE REUNION_R34_SW REUNION_R34_NW REUNION_R50_NE REUNION_R50_SE REUNION_R50_SW REUNION_R50_NW REUNION_R64_NE REUNION_R64_SE REUNION_R64_SW REUNION_R64_NW BOM_LAT BOM_LON BOM_TYPE BOM_WIND BOM_PRES BOM_TNUM BOM_CI BOM_RMW BOM_R34_NE BOM_R34_SE BOM_R34_SW BOM_R34_NW BOM_R50_NE BOM_R50_SE BOM_R50_SW BOM_R50_NW BOM_R64_NE BOM_R64_SE BOM_R64_SW BOM_R64_NW BOM_ROCI BOM_POCI BOM_EYE BOM_POS_METHOD BOM_PRES_METHOD NADI_LAT NADI_LON NADI_CAT NADI_WIND NADI_PRES WELLINGTON_LAT WELLINGTON_LON WELLINGTON_WIND WELLINGTON_PRES DS824_LAT DS824_LON DS824_STAGE DS824_WIND DS824_PRES TD9636_LAT TD9636_LON TD9636_STAGE TD9636_WIND TD9636_PRES TD9635_LAT TD9635_LON TD9635_WIND TD9635_PRES TD9635_ROCI NEUMANN_LAT NEUMANN_LON NEUMANN_CLASS NEUMANN_WIND NEUMANN_PRES MLC_LAT MLC_LON MLC_CLASS MLC_WIND MLC_PRES USA_GUST BOM_GUST BOM_GUST_PER REUNION_GUST REUNION_GUST_PER USA_SEAHGT USA_SEARAD_NE USA_SEARAD_SE USA_SEARAD_SW USA_SEARAD_NW STORM_SPEED STORM_DIR
1893264N18089 1893 46 NI BB NOT_NAMED 1893-09-21 00:00:00 TS 17.7000 89.1000 main 383 383 _________O____ -1 17.7000 89.1000 TC 34 0 0
1893264N18089 1893 46 NI BB NOT_NAMED 1893-09-21 03:00:00 TS 17.7000 89.1000 main 383 383 _________PO___ -1 17.7000 89.1000 TC 36 17.7000 89.1000 2 0 0
1893264N18089 1893 46 NI BB NOT_NAMED 1893-09-21 06:00:00 TS 17.7081 89.0932 main 383 383 _________OP___ -1 17.7000 89.1000 TC 39 17.7204 89.0829 2 0 0
1893264N18089 1893 46 NI BB NOT_NAMED 1893-09-21 09:00:00 TS 17.7140 89.0883 main 383 383 _________PP___ -1 17.7000 89.1000 TC 42 17.7326 89.0727 2 0 0
1893264N18089 1893 46 NI BB NOT_NAMED 1893-09-21 12:00:00 TS 17.7143 89.0881 main 383 383 _________OP___ -1 17.7000 89.1000 TC 45 17.7285 89.0761 2 0 0
1893264N18089 1893 46 NI BB NOT_NAMED 1893-09-21 15:00:00 TS 17.7000 89.1000 main 383 383 _________PO___ -1 17.7000 89.1000 TC 45 17.7000 89.1000 3 1 137
1893264N18089 1893 46 NI BB NOT_NAMED 1893-09-21 18:00:00 TS 17.6735 89.1222 main 383 383 _________OP___ -1 17.7000 89.1000 TC 45 17.6471 89.1443 3 1 140
1893264N18089 1893 46 NI BB NOT_NAMED 1893-09-21 21:00:00 TS 17.6324 89.1559 main 398 390 _________PP___ -1 17.6625 89.1299 TC 45 17.6023 89.1818 3 0 0
1893264N18089 1893 46 NI BB NOT_NAMED 1893-09-22 00:00:00 TS 17.6532 89.1392 main 383 367 _________OP___ -1 17.7000 89.1000 TC 45 17.6063 89.1784 3 2 322
1893264N18089 1893 46 NI BB NOT_NAMED 1893-09-22 03:00:00 TS 17.7950 89.0262 main 367 337 _________PO___ -1 17.8900 88.9524 TC 45 17.7000 89.1000 3 5 323
1893264N18089 1893 46 NI BB NOT_NAMED 1893-09-22 06:00:00 TS 18.0658 88.8143 main 329 284 _________OP___ -1 18.2000 88.7000 TC 45 17.9315 88.9286 3 8 323
1893264N18089 1893 46 NI BB NOT_NAMED 1893-09-22 09:00:00 TS 18.4187 88.5288 main 284 229 _________PP___ -1 18.5850 88.3801 TC 45 18.2524 88.6776 3 10 321
1893264N18089 1893 46 NI BB NOT_NAMED 1893-09-22 12:00:00 TS 18.8110 88.1814 main 229 168 _________OP___ -1 19.0000 88.0000 TC 45 18.6220 88.3628 3 10 318
1893264N18089 1893 46 NI BB NOT_NAMED 1893-09-22 15:00:00 TS 19.1825 87.8074 main 168 115 _________PO___ -1 19.3649 87.6148 TC 41 19.0000 88.0000 3 10 314
1893264N18089 1893 46 NI BB NOT_NAMED 1893-09-22 18:00:00 TS 19.5207 87.4052 main 115 64 _________OP___ -1 19.7000 87.2000 TC 37 19.3415 87.6103 3 10 310
1893264N18089 1893 46 NI BB NOT_NAMED 1893-09-22 21:00:00 TS 19.8477 86.9615 main 64 10 _________PP___ -1 20.0150 86.7425 TC 33 19.6804 87.1805 3 10 307
1893264N18089 1893 46 NI BB NOT_NAMED 1893-09-23 00:00:00 TS 20.1520 86.5177 main 0 0 _________OP___ -1 20.3000 86.3000 TC 30 20.0040 86.7353 3 10 307
1893264N18089 1893 46 NI BB NOT_NAMED 1893-09-23 03:00:00 TS 20.4324 86.1211 main 0 0 _________PO___ -1 20.5648 85.9423 TC 30 20.3000 86.3000 1 9 306
1893264N18089 1893 46 NI BB NOT_NAMED 1893-09-23 06:00:00 TS 20.6747 85.7509 main 0 0 _________OP___ -1 20.8000 85.6000 TC 30 20.5494 85.9017 1 8 303
1893264N18089 1893 46 NI BB NOT_NAMED 1893-09-23 09:00:00 TS 20.8861 85.3594 main 0 0 _________PP___ -1 21.0000 85.1998 TC 30 20.7721 85.5190 1 8 300
1893264N18089 1893 46 NI BB NOT_NAMED 1893-09-23 12:00:00 TS 21.0919 84.9759 main 0 0 _________OP___ -1 21.2000 84.8000 TC 30 20.9838 85.1518 1 8 302
1893264N18089 1893 46 NI BB NOT_NAMED 1893-09-23 15:00:00 TS 21.3212 84.6175 main 0 0 _________PO___ -1 21.4424 84.4349 TC 30 21.2000 84.8000 1 8 305
1893264N18089 1893 46 NI BB NOT_NAMED 1893-09-23 18:00:00 TS 21.5552 84.2619 main 0 0 _________OP___ -1 21.7000 84.1000 TC 30 21.4104 84.4239 1 8 305
1893264N18089 1893 46 NI BB NOT_NAMED 1893-09-23 21:00:00 TS 21.7763 83.9260 main 0 0 _________PP___ -1 21.9199 83.7847 TC 30 21.6327 84.0673 1 8 310
1893264N18089 1893 46 NI BB NOT_NAMED 1893-09-24 00:00:00 TS 22.0443 83.6261 main 0 0 _________OP___ -1 22.2000 83.5000 TC 30 21.8886 83.7521 1 8 320
1893264N18089 1893 46 NI BB NOT_NAMED 1893-09-24 03:00:00 TS 22.4100 83.3490 main 0 0 _________PO___ -1 22.6200 83.1979 TC 30 22.2000 83.5000 1 9 331
1893264N18089 1893 46 NI BB NOT_NAMED 1893-09-24 06:00:00 TS 22.8521 83.1376 main 0 0 _________OP___ -1 23.1000 83.0000 TC 30 22.6042 83.2752 1 9 343
1893264N18089 1893 46 NI BB NOT_NAMED 1893-09-24 09:00:00 TS 23.3096 83.0481 main 0 0 _________PP___ -1 23.5574 82.9749 TC 30 23.0619 83.1213 1 9 357
1893264N18089 1893 46 NI BB NOT_NAMED 1893-09-24 12:00:00 TS 23.7693 83.0784 main 0 0 _________OP___ -1 24.0000 83.1000 TC 30 23.5386 83.0567 1 9 9
1893264N18089 1893 46 NI BB NOT_NAMED 1893-09-24 15:00:00 TS 24.2075 83.2062 main 0 0 _________PO___ -1 24.4150 83.3124 TC 30 24.0000 83.1000 1 9 21
1893264N18089 1893 46 NI BB NOT_NAMED 1893-09-24 18:00:00 TS 24.6249 83.4467 main 0 0 _________OP___ -1 24.8000 83.6000 TC 30 24.4499 83.2933 1 10 31
1893264N18089 1893 46 NI BB NOT_NAMED 1893-09-24 21:00:00 TS 25.0367 83.7546 main 0 0 _________PP___ -1 25.2026 83.9222 TC 30 24.8709 83.5869 1 9 37
1893264N18089 1893 46 NI BB NOT_NAMED 1893-09-25 00:00:00 TS 25.3656 84.0562 main 0 0 _________OP___ -1 25.5000 84.2000 TC 30 25.2313 83.9123 1 7 42
1893264N18089 1893 46 NI BB NOT_NAMED 1893-09-25 03:00:00 TS 25.5474 84.2652 main 0 0 _________PO___ -1 25.5949 84.3303 TC 30 25.5000 84.2000 1 4 49
1893264N18089 1893 46 NI BB NOT_NAMED 1893-09-25 06:00:00 TS 25.6195 84.3797 main 0 0 _________OP___ -1 25.6000 84.4000 TC 30 25.6391 84.3595 1 2 59
1893264N18089 1893 46 NI BB NOT_NAMED 1893-09-25 09:00:00 TS 25.6698 84.4881 main 0 0 _________PP___ -1 25.6500 84.5075 TC 30 25.6896 84.4687 1 2 66
1893264N18089 1893 46 NI BB NOT_NAMED 1893-09-25 12:00:00 TS 25.6977 84.5718 main 0 0 _________OP___ -1 25.7000 84.6000 TC 30 25.6954 84.5435 1 1 68
1893264N18089 1893 46 NI BB NOT_NAMED 1893-09-25 15:00:00 TS 25.7212 84.6288 main 0 0 _________PO___ -1 25.7425 84.6575 TC 30 25.7000 84.6000 1 1 53
1893264N18089 1893 46 NI BB NOT_NAMED 1893-09-25 18:00:00 TS 25.7645 84.6724 main 0 0 _________OP___ -1 25.8000 84.7000 TC 30 25.7379 84.6518 1 1 33
1893264N18089 1893 46 NI BB NOT_NAMED 1893-09-25 21:00:00 TS 25.8406 84.7202 main 0 0 _________PP___ -1 25.8900 84.7475 TC 30 25.8076 84.7020 1 2 28
1893264N18089 1893 46 NI BB NOT_NAMED 1893-09-26 00:00:00 TS 25.9324 84.7675 main 0 0 _________OP___ -1 26.0000 84.8000 TC 30 25.8985 84.7512 1 2 22
1893264N18089 1893 46 NI BB NOT_NAMED 1893-09-26 03:00:00 NR 26.0000 84.8000 main 0 __________O___ -1 TC 26.0000 84.8000 1 1 31

About IBTrACS Database

This database is a web-friendly format of International Best Track Archive for Climate Stewardship (IBTrACS), a global best track data archive curated by NOAA dating back to 1842.

Updated: 2021-12-01